Time;durP1;ratioP1;P1;durP2;ratioP2;P2;SDS_P1;SDS_P2;PMS_P1;PMS_P2;Temp;Humidity;BMP_temperature;BMP_pressure;BME280_temperature;BME280_humidity;BME280_pressure;Samples;Min_cycle;Max_cycle;Signal;HPM_P1;HPM_P2
2023/07/24 00:00:11;;;;;;;12.00;7.78;;;;;;;17.62;100.00;95305.69;4989260;28;20045;-87
2023/07/24 00:02:36;;;;;;;6.78;5.95;;;;;;;17.49;100.00;95303.88;4972849;28;20026;-87
2023/07/24 00:05:02;;;;;;;7.53;5.82;;;;;;;17.31;100.00;95309.72;4989456;28;20031;-85
2023/07/24 00:07:27;;;;;;;6.18;5.57;;;;;;;17.15;100.00;95317.19;4976492;28;20034;-86
2023/07/24 00:09:53;;;;;;;7.72;5.68;;;;;;;17.16;100.00;95321.44;4955644;28;20035;-88
2023/07/24 00:12:18;;;;;;;7.15;5.50;;;;;;;17.08;100.00;95329.50;4972165;28;20035;-89
2023/07/24 00:14:44;;;;;;;6.50;5.65;;;;;;;17.42;100.00;95349.41;4972764;28;20047;-88
2023/07/24 00:17:09;;;;;;;6.53;5.75;;;;;;;17.47;100.00;95316.34;4971113;28;20419;-87
2023/07/24 00:19:35;;;;;;;6.97;5.70;;;;;;;17.23;100.00;95315.19;4972526;28;20022;-89
2023/07/24 00:22:00;;;;;;;9.80;6.53;;;;;;;17.00;100.00;95348.81;4988731;28;20411;-88
2023/07/24 00:24:27;;;;;;;6.93;6.28;;;;;;;16.86;100.00;95379.38;4990450;28;20053;-91
2023/07/24 00:26:52;;;;;;;8.35;5.60;;;;;;;16.93;100.00;95425.69;4989826;28;20114;-90
2023/07/24 00:29:18;;;;;;;7.00;5.35;;;;;;;16.92;100.00;95414.41;4991010;28;20030;-90
2023/07/24 00:31:43;;;;;;;6.32;5.63;;;;;;;16.65;100.00;95449.34;5038856;23;20058;-87
2023/07/24 00:34:08;;;;;;;7.60;5.88;;;;;;;16.60;100.00;95459.63;4956458;28;20419;-85
2023/07/24 00:36:34;;;;;;;7.80;6.43;;;;;;;16.75;100.00;95452.41;4973126;28;20026;-85
2023/07/24 00:38:59;;;;;;;6.82;5.82;;;;;;;16.63;100.00;95431.22;4989283;28;20088;-85
2023/07/24 00:41:25;;;;;;;7.70;6.47;;;;;;;16.73;100.00;95430.84;4990430;28;20022;-85
2023/07/24 00:43:50;;;;;;;8.23;5.70;;;;;;;16.86;100.00;95405.53;4971728;28;20029;-84
2023/07/24 00:46:15;;;;;;;6.85;5.53;;;;;;;17.01;100.00;95389.69;4990424;28;20025;-85
2023/07/24 00:48:41;;;;;;;7.57;5.78;;;;;;;17.10;100.00;95371.97;4989508;28;20023;-84
2023/07/24 00:51:06;;;;;;;9.32;6.72;;;;;;;17.01;100.00;95344.38;4972835;28;20024;-84
2023/07/24 00:53:32;;;;;;;9.70;7.13;;;;;;;17.27;100.00;95324.22;4972704;28;20030;-84
2023/07/24 00:55:57;;;;;;;7.78;6.43;;;;;;;16.90;100.00;95303.09;4989324;28;20026;-84
2023/07/24 00:58:23;;;;;;;8.80;6.43;;;;;;;16.65;100.00;95331.66;4972714;28;20561;-85
2023/07/24 01:00:50;;;;;;;9.25;5.80;;;;;;;16.65;100.00;95356.00;4971696;28;20030;-84
2023/07/24 01:03:15;;;;;;;7.15;6.32;;;;;;;16.77;100.00;95353.59;4956466;28;20084;-85
2023/07/24 01:05:41;;;;;;;9.30;6.72;;;;;;;16.93;100.00;95326.25;4971767;28;20563;-84
2023/07/24 01:08:07;;;;;;;11.50;5.88;;;;;;;16.73;100.00;95331.44;4989966;28;20026;-87
2023/07/24 01:10:32;;;;;;;10.38;6.18;;;;;;;16.58;100.00;95356.97;4972218;28;20400;-87
2023/07/24 01:13:17;;;;;;;9.40;6.07;;;;;;;16.64;100.00;95374.50;4971579;28;20065;-85
2023/07/24 01:15:48;;;;;;;6.45;5.50;;;;;;;16.84;100.00;95360.47;4972369;28;20022;-84
2023/07/24 01:18:16;;;;;;;8.20;6.85;;;;;;;16.84;100.00;95317.78;4971407;28;20026;-86
2023/07/24 01:20:50;;;;;;;8.77;5.97;;;;;;;16.61;100.00;95317.34;4972547;28;20765;-87
2023/07/24 01:23:24;;;;;;;8.70;6.15;;;;;;;16.60;100.00;95334.06;4971826;28;20511;-87
2023/07/24 01:26:00;;;;;;;11.45;7.78;;;;;;;16.45;100.00;95322.91;4971958;28;20070;-85
2023/07/24 01:28:26;;;;;;;11.57;7.25;;;;;;;16.59;100.00;95316.75;4989973;28;20554;-88
2023/07/24 01:30:52;;;;;;;9.75;6.60;;;;;;;16.64;100.00;95301.25;4954978;28;20570;-84
2023/07/24 01:33:18;;;;;;;12.10;7.00;;;;;;;16.62;100.00;95283.16;4955991;28;20149;-89
2023/07/24 01:35:44;;;;;;;11.00;7.45;;;;;;;16.27;100.00;95284.28;4971560;28;20068;-88
2023/07/24 01:38:11;;;;;;;11.43;8.05;;;;;;;16.08;100.00;95325.03;4973546;28;20026;-94
2023/07/24 01:40:41;;;;;;;12.73;7.70;;;;;;;16.05;100.00;95340.28;4989605;28;20484;-91
2023/07/24 01:43:07;;;;;;;12.15;8.20;;;;;;;16.02;100.00;95349.31;4972459;28;20030;-93
2023/07/24 01:45:32;;;;;;;12.82;7.47;;;;;;;16.01;100.00;95359.97;4972757;28;20100;-89
2023/07/24 01:47:58;;;;;;;14.15;7.68;;;;;;;16.16;100.00;95335.31;4971171;28;20053;-89
2023/07/24 01:50:23;;;;;;;17.92;8.68;;;;;;;16.14;100.00;95323.44;4989893;28;20033;-87
2023/07/24 01:52:49;;;;;;;11.88;8.23;;;;;;;16.02;100.00;95335.47;4988564;28;20030;-89
2023/07/24 01:55:14;;;;;;;12.95;7.72;;;;;;;15.79;100.00;95338.34;4972086;28;20046;-87
2023/07/24 01:57:40;;;;;;;11.93;7.57;;;;;;;15.86;100.00;95341.78;4988388;28;20158;-89
2023/07/24 02:00:06;;;;;;;17.00;8.10;;;;;;;15.82;100.00;95328.34;4989240;28;20424;-89
2023/07/24 02:02:31;;;;;;;12.68;8.02;;;;;;;15.77;100.00;95325.47;4971914;28;20038;-88
2023/07/24 02:04:57;;;;;;;18.05;8.40;;;;;;;16.06;100.00;95329.63;4971363;28;20026;-87
2023/07/24 02:07:22;;;;;;;10.10;7.05;;;;;;;16.07;100.00;95301.69;4989193;28;20022;-87
2023/07/24 02:09:48;;;;;;;12.05;8.02;;;;;;;15.78;100.00;95289.72;4988273;28;20356;-88
2023/07/24 02:12:13;;;;;;;16.88;8.05;;;;;;;15.81;100.00;95311.03;4971963;28;20030;-88
2023/07/24 02:14:39;;;;;;;12.98;7.30;;;;;;;15.69;100.00;95304.75;4988233;28;20640;-87
2023/07/24 02:17:04;;;;;;;14.70;9.30;;;;;;;15.92;100.00;95307.06;4989007;28;20062;-87
2023/07/24 02:19:30;;;;;;;14.05;7.60;;;;;;;16.00;100.00;95290.41;4971094;28;20026;-88
2023/07/24 02:21:55;;;;;;;13.15;7.90;;;;;;;16.06;100.00;95282.59;4989118;28;20488;-89
2023/07/24 02:24:21;;;;;;;11.23;7.70;;;;;;;15.83;100.00;95267.22;4988939;28;20030;-90
2023/07/24 02:26:46;;;;;;;13.90;8.80;;;;;;;15.71;100.00;95276.63;4988482;28;20106;-89
2023/07/24 02:29:12;;;;;;;14.55;8.52;;;;;;;15.64;100.00;95291.47;4955523;28;20069;-90
2023/07/24 02:31:37;;;;;;;16.83;8.63;;;;;;;15.51;100.00;95304.44;4988162;28;20046;-88
2023/07/24 02:34:02;;;;;;;12.02;7.78;;;;;;;15.66;100.00;95299.09;4989172;28;20484;-88
2023/07/24 02:36:28;;;;;;;13.68;7.95;;;;;;;15.77;100.00;95277.66;4970600;28;20018;-87
2023/07/24 02:38:53;;;;;;;14.05;8.82;;;;;;;15.85;100.00;95266.25;4989485;28;20096;-87
2023/07/24 02:41:19;;;;;;;13.10;7.53;;;;;;;15.98;100.00;95253.22;4988192;28;20084;-88
2023/07/24 02:43:44;;;;;;;16.63;10.63;;;;;;;15.77;100.00;95252.34;4988537;28;20105;-88
2023/07/24 02:46:09;;;;;;;15.60;8.57;;;;;;;15.58;100.00;95262.69;4988812;28;20033;-87
2023/07/24 02:48:35;;;;;;;18.85;8.85;;;;;;;15.50;100.00;95281.16;4954443;28;20026;-89
2023/07/24 02:51:00;;;;;;;14.48;8.90;;;;;;;15.36;100.00;95301.09;4992377;28;20456;-84
2023/07/24 02:53:26;;;;;;;16.52;8.57;;;;;;;15.64;100.00;95314.16;4976177;28;20053;-87
2023/07/24 02:55:51;;;;;;;11.93;7.82;;;;;;;15.75;100.00;95293.53;4991232;28;20456;-87
2023/07/24 02:58:17;;;;;;;11.60;8.65;;;;;;;15.87;100.00;95272.06;4991241;28;20018;-87
2023/07/24 03:00:42;;;;;;;11.50;8.15;;;;;;;15.79;100.00;95278.28;4992569;28;20469;-87
2023/07/24 03:03:07;;;;;;;13.25;8.45;;;;;;;15.90;100.00;95280.31;4991756;28;20026;-87
2023/07/24 03:05:36;;;;;;;16.85;8.50;;;;;;;15.78;100.00;95274.03;4992049;28;20041;-87
2023/07/24 03:08:02;;;;;;;16.70;9.23;;;;;;;15.77;100.00;95303.78;4974845;28;20106;-87
2023/07/24 03:10:27;;;;;;;14.82;9.02;;;;;;;15.87;100.00;95288.56;4991066;28;20571;-87
2023/07/24 03:12:52;;;;;;;11.18;7.40;;;;;;;15.61;100.00;95301.47;4992114;28;20030;-87
2023/07/24 03:15:19;;;;;;;13.85;7.60;;;;;;;15.77;100.00;95320.25;4973555;28;20416;-88
2023/07/24 03:17:44;;;;;;;13.43;8.27;;;;;;;15.82;100.00;95315.28;4992323;28;20040;-89
2023/07/24 03:20:15;;;;;;;20.80;12.00;;;;;;;15.64;100.00;95308.91;4974109;28;20514;-89
2023/07/24 03:22:42;;;;;;;15.02;8.70;;;;;;;15.38;100.00;95308.75;4958330;28;20053;-91
2023/07/24 03:25:08;;;;;;;17.45;9.00;;;;;;;15.33;100.00;95288.44;4958694;28;20061;-93
2023/07/24 03:27:33;;;;;;;16.92;8.02;;;;;;;15.38;100.00;95274.84;4974328;28;20057;-89
2023/07/24 03:29:59;;;;;;;18.42;10.05;;;;;;;15.38;100.00;95262.56;4992272;28;20053;-92
2023/07/24 03:32:24;;;;;;;17.80;9.77;;;;;;;15.35;100.00;95252.50;4990617;28;20409;-89
2023/07/24 03:34:49;;;;;;;13.02;7.95;;;;;;;15.33;100.00;95264.94;4992107;28;20408;-93
2023/07/24 03:37:15;;;;;;;13.88;7.85;;;;;;;15.44;100.00;95276.66;4993096;28;20484;-90
2023/07/24 03:39:40;;;;;;;18.63;8.85;;;;;;;15.74;100.00;95257.16;4992776;28;20029;-89
2023/07/24 03:42:06;;;;;;;16.05;10.23;;;;;;;15.83;100.00;95214.19;4991942;28;20480;-88
2023/07/24 03:44:31;;;;;;;19.90;9.68;;;;;;;16.00;100.00;95191.13;4991160;28;20022;-91
2023/07/24 03:46:56;;;;;;;14.77;8.85;;;;;;;16.07;100.00;95182.31;4974406;28;20030;-88
2023/07/24 03:49:22;;;;;;;20.75;8.85;;;;;;;16.52;100.00;95167.66;4973149;28;20427;-86
2023/07/24 03:51:48;;;;;;;15.30;8.10;;;;;;;17.16;100.00;95125.91;4991276;28;20030;-86
2023/07/24 03:54:13;;;;;;;14.15;8.45;;;;;;;17.81;100.00;95089.97;4990236;28;20034;-84
2023/07/24 03:56:39;;;;;;;12.07;8.00;;;;;;;18.51;100.00;95059.16;4991203;28;20023;-84
2023/07/24 03:59:05;;;;;;;13.98;8.18;;;;;;;19.13;100.00;95019.50;4990654;28;20030;-84
2023/07/24 04:01:31;;;;;;;13.32;7.90;;;;;;;19.29;100.00;95010.19;4957486;28;20033;-84
2023/07/24 04:03:58;;;;;;;10.80;7.60;;;;;;;19.61;100.00;94995.00;4991029;28;20026;-84
2023/07/24 04:06:24;;;;;;;10.40;7.53;;;;;;;19.63;100.00;94992.94;4972352;28;20041;-85
2023/07/24 04:08:49;;;;;;;11.95;8.10;;;;;;;19.76;100.00;94983.03;4990940;28;20118;-85
2023/07/24 04:11:14;;;;;;;11.43;7.90;;;;;;;20.33;100.00;94986.75;4990203;28;20026;-84
2023/07/24 04:13:40;;;;;;;9.82;7.57;;;;;;;20.77;100.00;94964.28;4973264;28;20492;-84
2023/07/24 04:16:05;;;;;;;9.68;6.70;;;;;;;20.28;100.00;94973.50;4989988;28;20022;-84
2023/07/24 04:18:31;;;;;;;10.23;6.93;;;;;;;19.52;100.00;94991.13;4991690;28;20153;-84
2023/07/24 04:20:56;;;;;;;8.30;6.93;;;;;;;20.04;100.00;94992.91;4956380;28;20105;-83
2023/07/24 04:23:22;;;;;;;9.52;7.22;;;;;;;19.34;100.00;95002.44;4990921;28;20034;-84
2023/07/24 04:25:49;;;;;;;10.55;7.80;;;;;;;18.83;100.00;95024.69;4973002;28;20025;-84
2023/07/24 04:28:15;;;;;;;12.23;7.75;;;;;;;19.50;100.00;95017.59;4989900;28;20030;-84
2023/07/24 04:30:41;;;;;;;11.45;7.68;;;;;;;19.13;100.00;95037.88;4973123;28;20473;-84
2023/07/24 04:33:06;;;;;;;13.63;7.90;;;;;;;19.81;100.00;95041.00;4989333;28;20057;-84
2023/07/24 04:35:32;;;;;;;11.93;8.45;;;;;;;19.78;100.00;95040.63;4990600;28;20048;-84
2023/07/24 04:37:57;;;;;;;10.75;8.40;;;;;;;20.96;100.00;94983.34;4971812;28;20023;-83
2023/07/24 04:40:23;;;;;;;12.10;8.65;;;;;;;19.81;100.00;95004.19;4973245;28;20041;-83
2023/07/24 04:42:49;;;;;;;11.00;7.60;;;;;;;21.78;100.00;94991.69;4972205;28;20105;-84
2023/07/24 04:45:15;;;;;;;16.80;7.30;;;;;;;23.69;100.00;94958.25;4956681;28;20032;-84
2023/07/24 04:47:40;;;;;;;9.07;6.63;;;;;;;24.28;100.00;94959.78;4972952;28;20030;-84
2023/07/24 04:50:06;;;;;;;8.75;7.40;;;;;;;24.85;98.25;94967.00;4989237;28;20045;-84
2023/07/24 04:52:31;;;;;;;9.23;6.97;;;;;;;25.77;91.07;94963.53;4956645;28;20030;-85
2023/07/24 04:54:57;;;;;;;9.35;7.65;;;;;;;25.84;88.08;94970.19;4971688;28;20190;-82
2023/07/24 04:57:22;;;;;;;10.45;8.55;;;;;;;25.94;86.23;94970.19;4973332;28;20372;-84
2023/07/24 04:59:48;;;;;;;10.55;9.38;;;;;;;26.62;82.14;94968.75;4971513;28;20038;-84
2023/07/24 05:02:13;;;;;;;12.00;10.23;;;;;;;24.65;89.87;94973.78;4972791;28;20109;-85
2023/07/24 05:04:39;;;;;;;11.98;9.70;;;;;;;22.73;100.00;94975.72;4972415;28;20026;-84
2023/07/24 05:07:04;;;;;;;12.32;9.52;;;;;;;22.99;100.00;94981.03;4971810;28;20537;-84
2023/07/24 05:09:30;;;;;;;12.70;10.40;;;;;;;23.05;100.00;94976.63;4990333;28;20401;-85
2023/07/24 05:11:55;;;;;;;14.20;9.18;;;;;;;22.28;100.00;94981.94;4971211;28;20034;-83
2023/07/24 05:14:20;;;;;;;11.27;8.77;;;;;;;23.31;100.00;94977.72;4989984;28;20033;-84
2023/07/24 05:16:46;;;;;;;8.50;7.20;;;;;;;26.42;89.81;94971.50;4971521;28;20034;-82
2023/07/24 05:19:11;;;;;;;8.05;6.15;;;;;;;27.90;81.26;94977.75;4989448;28;20104;-84
2023/07/24 05:21:37;;;;;;;7.20;6.00;;;;;;;27.96;78.64;94971.31;4988990;28;20491;-82
2023/07/24 05:24:02;;;;;;;5.88;5.38;;;;;;;28.51;75.75;94976.16;4989573;28;20022;-82
2023/07/24 05:26:28;;;;;;;6.57;5.57;;;;;;;29.68;69.27;94975.59;4989680;28;20452;-82
2023/07/24 05:28:53;;;;;;;8.57;6.78;;;;;;;29.69;66.30;94972.63;4971343;28;20030;-82
2023/07/24 05:31:19;;;;;;;9.15;6.50;;;;;;;27.72;76.11;94966.69;4989576;28;20030;-84
2023/07/24 05:33:44;;;;;;;6.55;5.90;;;;;;;29.73;70.92;94970.19;4970157;28;20039;-83
2023/07/24 05:36:09;;;;;;;6.15;5.55;;;;;;;28.25;74.77;94967.63;4988042;28;20483;-83
2023/07/24 05:38:35;;;;;;;5.60;5.10;;;;;;;27.87;82.82;94970.34;4987588;28;20022;-82
2023/07/24 05:41:02;;;;;;;6.05;5.45;;;;;;;30.78;67.29;94980.22;4970732;28;20657;-86
2023/07/24 05:43:28;;;;;;;7.30;5.97;;;;;;;31.37;64.17;94973.94;4969984;28;20118;-82
2023/07/24 05:45:55;;;;;;;6.07;5.47;;;;;;;31.61;58.83;94971.84;4970807;28;20098;-83
2023/07/24 05:48:21;;;;;;;6.10;5.55;;;;;;;32.71;55.81;94972.97;4969843;28;20038;-83
2023/07/24 05:50:47;;;;;;;5.50;5.00;;;;;;;33.23;53.62;94965.88;4970604;28;20034;-83
2023/07/24 05:53:13;;;;;;;5.70;5.20;;;;;;;32.82;55.32;94963.53;4970281;28;20492;-84
2023/07/24 05:55:38;;;;;;;6.47;5.70;;;;;;;32.94;56.55;94964.84;4970014;28;20061;-83
2023/07/24 05:58:04;;;;;;;6.27;5.20;;;;;;;34.01;50.08;94961.38;4970301;28;20105;-84
2023/07/24 06:00:29;;;;;;;5.97;5.47;;;;;;;33.92;51.01;94964.09;4953463;28;20038;-85
2023/07/24 06:02:54;;;;;;;8.70;7.97;;;;;;;33.71;50.26;94955.09;4970694;28;20028;-83
2023/07/24 06:05:20;;;;;;;7.53;6.83;;;;;;;34.18;50.38;94950.63;4969278;28;20523;-83
2023/07/24 06:07:46;;;;;;;17.27;15.60;;;;;;;33.66;49.27;94941.78;4970186;28;20499;-83
2023/07/24 06:10:12;;;;;;;8.23;7.03;;;;;;;33.05;46.74;94944.63;4953518;28;20038;-83
2023/07/24 06:12:38;;;;;;;9.43;6.60;;;;;;;34.47;44.58;94947.25;4953791;28;20510;-85
2023/07/24 06:15:03;;;;;;;7.40;6.70;;;;;;;33.71;46.87;94936.25;4970531;28;20125;-86
2023/07/24 06:17:29;;;;;;;7.63;6.73;;;;;;;34.38;46.70;94931.13;4953334;28;20049;-84
2023/07/24 06:19:55;;;;;;;7.40;6.67;;;;;;;33.20;49.12;94931.59;4954424;28;20037;-89
2023/07/24 06:22:20;;;;;;;9.13;7.10;;;;;;;34.67;48.15;94927.72;4969097;28;20035;-83
2023/07/24 06:24:45;;;;;;;7.03;6.32;;;;;;;33.25;46.90;94928.75;4954310;28;20384;-87
2023/07/24 06:27:11;;;;;;;8.93;6.60;;;;;;;32.19;49.15;94926.25;4969409;28;20030;-86
2023/07/24 06:29:36;;;;;;;9.75;6.75;;;;;;;35.52;44.18;94925.66;4987930;28;20076;-85
2023/07/24 06:32:02;;;;;;;7.13;6.15;;;;;;;33.93;47.22;94919.16;4973890;28;20132;-84
2023/07/24 06:34:28;;;;;;;6.55;5.95;;;;;;;33.09;50.39;94926.84;4973430;28;20028;-85
2023/07/24 06:36:53;;;;;;;6.15;5.55;;;;;;;31.41;55.34;94918.69;4992135;28;20027;-85
2023/07/24 06:39:20;;;;;;;7.43;6.03;;;;;;;29.77;62.67;94918.53;4990538;28;20027;-84
2023/07/24 06:41:45;;;;;;;6.30;5.25;;;;;;;31.04;56.71;94916.31;4974109;28;20066;-84
2023/07/24 06:44:11;;;;;;;5.95;5.35;;;;;;;30.49;56.94;94929.66;4973634;28;20109;-84
2023/07/24 06:46:37;;;;;;;5.45;4.95;;;;;;;31.96;50.74;94924.66;4957624;28;20484;-84
2023/07/24 06:49:02;;;;;;;5.70;5.20;;;;;;;34.85;45.71;94923.84;4957255;28;20026;-85
2023/07/24 06:51:28;;;;;;;6.80;4.87;;;;;;;34.73;44.58;94912.97;4973233;28;20038;-84
2023/07/24 06:53:53;;;;;;;5.80;5.30;;;;;;;34.63;43.99;94917.91;4973552;28;20143;-90
2023/07/24 06:56:18;;;;;;;5.78;5.18;;;;;;;35.53;43.47;94921.06;4957235;28;20512;-86
2023/07/24 06:58:44;;;;;;;5.53;5.00;;;;;;;35.23;43.31;94921.13;4957709;28;20124;-85
2023/07/24 07:01:09;;;;;;;5.57;5.07;;;;;;;35.64;42.33;94906.88;4972734;28;20463;-86
2023/07/24 07:03:35;;;;;;;6.18;5.32;;;;;;;35.85;42.23;94921.16;4973315;28;20061;-84
2023/07/24 07:06:01;;;;;;;6.65;5.18;;;;;;;34.14;45.98;94919.28;4972592;28;20069;-85
2023/07/24 07:08:26;;;;;;;5.97;5.30;;;;;;;32.64;49.45;94918.94;4973174;28;20038;-86
2023/07/24 07:10:59;;;;;;;6.32;5.65;;;;;;;31.69;51.50;94916.75;4957259;28;20533;-86
2023/07/24 07:13:25;;;;;;;5.25;4.75;;;;;;;31.50;53.45;94916.91;4973161;28;20034;-85
2023/07/24 07:15:50;;;;;;;5.47;4.97;;;;;;;31.29;54.67;94919.22;4991117;28;20097;-87
2023/07/24 07:18:16;;;;;;;4.75;4.28;;;;;;;31.85;54.26;94910.72;4990192;28;20030;-84
2023/07/24 07:20:46;;;;;;;5.85;5.18;;;;;;;31.53;54.77;94910.16;4990848;28;20480;-87
2023/07/24 07:23:12;;;;;;;5.60;5.00;;;;;;;30.28;57.25;94912.34;4972430;28;20037;-85
2023/07/24 07:25:37;;;;;;;5.82;5.05;;;;;;;29.62;57.09;94908.09;4957036;28;20038;-89
2023/07/24 07:28:03;;;;;;;5.38;4.88;;;;;;;30.54;59.01;94902.00;4972341;28;20026;-86
2023/07/24 07:30:28;;;;;;;5.90;5.32;;;;;;;30.78;56.92;94905.28;4972991;28;20031;-85
2023/07/24 07:32:53;;;;;;;7.32;4.95;;;;;;;31.08;59.09;94904.69;4977366;28;20042;-85
2023/07/24 07:35:19;;;;;;;7.72;5.30;;;;;;;29.12;62.69;94903.47;4981500;28;20034;-86
2023/07/24 07:37:44;;;;;;;5.95;5.10;;;;;;;29.81;62.03;94895.50;4972654;28;20041;-85
2023/07/24 07:40:10;;;;;;;6.97;5.10;;;;;;;31.57;59.97;94919.16;4971981;28;20394;-85
2023/07/24 07:42:35;;;;;;;6.57;5.00;;;;;;;31.98;58.97;94906.38;4972494;28;20113;-85
2023/07/24 07:45:01;;;;;;;8.00;5.20;;;;;;;32.07;57.88;94911.84;4971789;28;20508;-88
2023/07/24 07:47:26;;;;;;;4.97;4.40;;;;;;;32.08;57.74;94900.00;4973169;28;20026;-89
2023/07/24 07:49:52;;;;;;;6.50;4.85;;;;;;;31.98;57.54;94903.69;4972152;28;20407;-87
2023/07/24 07:52:17;;;;;;;5.82;5.22;;;;;;;32.26;55.27;94912.41;4990093;28;20096;-88
2023/07/24 07:54:47;;;;;;;6.82;5.30;;;;;;;32.73;58.56;94910.91;4956393;28;20029;-94
2023/07/24 07:57:12;;;;;;;5.13;4.63;;;;;;;32.67;57.27;94907.56;4972322;28;20058;-88
2023/07/24 07:59:38;;;;;;;7.82;5.43;;;;;;;32.34;57.23;94914.34;4972491;28;20157;-87
2023/07/24 08:02:03;;;;;;;10.52;5.97;;;;;;;32.27;57.24;94914.00;4989551;28;20477;-88
2023/07/24 08:04:29;;;;;;;8.15;5.30;;;;;;;31.57;57.04;94916.47;4973136;28;20034;-86
2023/07/24 08:06:54;;;;;;;8.05;5.38;;;;;;;31.46;60.99;94912.44;4989723;28;20488;-88
2023/07/24 08:09:21;;;;;;;6.97;5.97;;;;;;;32.15;58.45;94914.56;4990307;28;20480;-87
2023/07/24 08:11:47;;;;;;;7.25;5.07;;;;;;;31.62;59.14;94911.03;4972087;28;20027;-86
2023/07/24 08:14:13;;;;;;;7.38;5.40;;;;;;;31.57;60.60;94913.81;4955820;28;20117;-87
2023/07/24 08:16:38;;;;;;;7.10;6.00;;;;;;;32.23;55.31;94908.47;4956321;28;20089;-87
2023/07/24 08:19:04;;;;;;;8.48;5.45;;;;;;;31.40;56.52;94913.66;4971933;28;20034;-87
2023/07/24 08:21:29;;;;;;;5.70;4.93;;;;;;;31.16;58.33;94911.22;4956146;28;20542;-86
2023/07/24 08:23:55;;;;;;;6.72;5.55;;;;;;;31.71;61.81;94912.66;4955348;28;20023;-91
2023/07/24 08:26:20;;;;;;;7.00;5.63;;;;;;;32.07;58.05;94911.84;4972583;28;20030;-87
2023/07/24 08:28:45;;;;;;;6.18;5.53;;;;;;;31.00;52.13;94908.06;4955091;28;20091;-86
2023/07/24 08:31:11;;;;;;;6.75;5.35;;;;;;;31.40;54.04;94909.09;4971518;28;20572;-87
2023/07/24 08:33:36;;;;;;;10.57;5.75;;;;;;;32.43;55.57;94912.47;4972071;28;20257;-86
2023/07/24 08:36:07;;;;;;;8.00;5.60;;;;;;;32.01;54.19;94897.75;4988992;28;20018;-86
2023/07/24 08:38:33;;;;;;;7.38;5.70;;;;;;;31.81;48.50;94895.56;4971696;28;20026;-87
2023/07/24 08:41:03;;;;;;;8.35;6.18;;;;;;;31.82;46.94;94897.91;4954744;28;20048;-87
2023/07/24 08:43:32;;;;;;;9.80;7.22;;;;;;;31.32;45.10;94886.50;4972173;28;20030;-87
2023/07/24 08:46:02;;;;;;;13.15;6.97;;;;;;;32.04;49.33;94885.63;4971505;28;20031;-87
2023/07/24 08:48:35;;;;;;;7.82;6.38;;;;;;;31.43;45.36;94870.19;4956109;28;20037;-91
2023/07/24 08:51:06;;;;;;;9.32;5.70;;;;;;;31.26;50.29;94882.34;4971451;28;20065;-87
2023/07/24 08:53:36;;;;;;;19.50;8.75;;;;;;;30.69;48.75;94877.66;4970935;28;20026;-88
2023/07/24 08:56:05;;;;;;;7.20;6.25;;;;;;;30.97;43.69;94881.91;4988985;28;20037;-91
2023/07/24 08:58:31;;;;;;;9.25;6.80;;;;;;;30.66;47.23;94873.69;4988253;28;20495;-86
2023/07/24 09:00:57;;;;;;;17.55;8.07;;;;;;;30.87;48.31;94875.94;4971591;28;20045;-93
2023/07/24 09:03:23;;;;;;;17.23;6.53;;;;;;;30.26;50.31;94874.44;4988998;28;20053;-92
2023/07/24 09:05:48;;;;;;;17.10;7.50;;;;;;;30.24;52.13;94874.75;4971982;28;20500;-89
2023/07/24 09:08:14;;;;;;;10.90;6.32;;;;;;;30.72;51.03;94872.50;4971041;28;20034;-89
2023/07/24 09:10:40;;;;;;;11.82;6.22;;;;;;;29.93;51.73;94878.22;4971659;28;20030;-92
2023/07/24 09:13:07;;;;;;;7.80;5.63;;;;;;;30.20;53.06;94872.94;4955396;28;20105;-89
2023/07/24 09:15:43;;;;;;;7.55;6.57;;;;;;;31.54;50.83;94868.88;4954886;28;20034;-88
2023/07/24 09:18:09;;;;;;;7.82;5.97;;;;;;;30.48;50.47;94865.75;4955671;28;20192;-90
2023/07/24 09:20:41;;;;;;;9.05;6.20;;;;;;;31.35;48.16;94866.34;4954747;28;20511;-89
2023/07/24 09:23:10;;;;;;;9.05;6.72;;;;;;;31.52;51.17;94860.34;4954932;28;20030;-88
2023/07/24 09:25:39;;;;;;;8.90;6.10;;;;;;;31.35;47.50;94856.41;4955308;28;20041;-89
2023/07/24 09:28:12;;;;;;;9.07;6.53;;;;;;;30.79;48.62;94854.13;4954616;28;20030;-88
2023/07/24 09:30:38;;;;;;;10.10;6.65;;;;;;;30.81;48.84;94857.31;4971024;28;20037;-86
2023/07/24 09:33:04;;;;;;;7.32;6.32;;;;;;;31.30;50.32;94837.00;4954026;28;20486;-87
2023/07/24 09:35:31;;;;;;;8.25;6.43;;;;;;;31.83;47.74;94847.78;4971350;28;20161;-86
2023/07/24 09:38:09;;;;;;;8.27;6.70;;;;;;;31.11;46.85;94850.56;4988212;28;20412;-91
2023/07/24 09:40:40;;;;;;;8.35;6.88;;;;;;;31.42;48.10;94839.13;4988318;28;20062;-87
2023/07/24 09:43:15;;;;;;;8.93;5.97;;;;;;;32.11;47.56;94835.81;4987871;28;20079;-84
2023/07/24 09:45:42;;;;;;;7.65;6.15;;;;;;;32.19;48.46;94842.31;4970384;28;20407;-90
2023/07/24 09:48:11;;;;;;;7.47;6.20;;;;;;;32.11;46.47;94835.81;4971233;28;20026;-89
2023/07/24 09:50:36;;;;;;;9.18;6.07;;;;;;;31.93;44.08;94838.69;4971251;28;20472;-91
2023/07/24 09:53:04;;;;;;;8.35;6.30;;;;;;;32.18;47.97;94841.53;4955250;28;20037;-84
2023/07/24 09:55:35;;;;;;;7.23;6.50;;;;;;;32.36;45.87;94831.69;4954576;28;20034;-87
2023/07/24 09:58:01;;;;;;;10.73;6.35;;;;;;;32.73;46.40;94825.81;4954825;28;20123;-86
2023/07/24 10:00:27;;;;;;;7.78;5.80;;;;;;;32.91;47.57;94810.53;4970566;28;20022;-86
2023/07/24 10:02:52;;;;;;;8.65;6.13;;;;;;;32.61;45.65;94812.22;4970535;28;20030;-89
2023/07/24 10:05:18;;;;;;;11.23;6.38;;;;;;;32.49;46.12;94800.47;4973788;28;20044;-86
2023/07/24 10:07:43;;;;;;;9.63;6.53;;;;;;;32.28;44.82;94802.91;4958662;28;20033;-92
2023/07/24 10:10:09;;;;;;;9.85;6.72;;;;;;;32.71;46.40;94801.19;4975343;28;20507;-89
2023/07/24 10:12:36;;;;;;;9.95;5.88;;;;;;;31.73;45.96;94789.88;4958472;28;20097;-89
2023/07/24 10:15:01;;;;;;;8.55;6.15;;;;;;;32.37;45.92;94787.63;4959007;28;20397;-89
2023/07/24 10:17:41;;;;;;;8.25;6.00;;;;;;;32.68;48.26;94788.38;4974445;28;20023;-87
2023/07/24 10:20:10;;;;;;;9.63;6.20;;;;;;;32.96;46.26;94793.47;4974650;28;20037;-84
2023/07/24 10:22:37;;;;;;;15.55;6.18;;;;;;;32.97;48.92;94792.38;4974337;28;20069;-82
2023/07/24 10:25:03;;;;;;;9.27;5.18;;;;;;;32.92;46.28;94795.97;4958716;28;20478;-90
2023/07/24 10:27:28;;;;;;;8.85;5.95;;;;;;;32.59;44.44;94787.56;4974768;28;20030;-90
2023/07/24 10:30:07;;;;;;;9.48;5.65;;;;;;;32.85;48.51;94780.34;4974434;28;20026;-90
2023/07/24 10:32:32;;;;;;;9.75;5.72;;;;;;;32.74;44.97;94781.75;4974632;28;20065;-90
2023/07/24 10:35:08;;;;;;;7.90;6.13;;;;;;;32.90;47.80;94779.41;4974443;28;20023;-88
2023/07/24 10:37:37;;;;;;;10.27;6.30;;;;;;;33.19;47.66;94787.66;4958065;28;20073;-89
2023/07/24 10:40:05;;;;;;;10.95;5.63;;;;;;;33.05;47.07;94773.56;4974544;28;20507;-87
2023/07/24 10:42:33;;;;;;;13.05;6.43;;;;;;;32.83;45.57;94774.50;4974099;28;20085;-91
2023/07/24 10:45:09;;;;;;;9.88;5.63;;;;;;;32.66;47.07;94771.78;4959000;28;20045;-89
2023/07/24 10:47:34;;;;;;;14.95;5.85;;;;;;;32.69;47.74;94756.94;4973185;28;20070;-90
2023/07/24 10:50:03;;;;;;;10.52;5.50;;;;;;;32.82;46.49;94769.44;4974161;28;20057;-86
2023/07/24 10:52:29;;;;;;;;;;;;;;;32.84;47.71;94759.19;4974887;28;20033;-88
2023/07/24 10:54:54;;;;;;;10.60;6.38;;;;;;;32.92;47.45;94752.22;4958161;28;19913;-90
2023/07/24 10:57:26;;;;;;;11.40;6.13;;;;;;;32.98;45.77;94761.69;4991336;28;20015;-89
2023/07/24 10:59:51;;;;;;;14.40;6.22;;;;;;;32.96;47.29;94763.91;4973622;28;20034;-89
2023/07/24 11:02:16;;;;;;;10.35;5.28;;;;;;;33.20;49.10;94753.53;4958167;28;20033;-86
2023/07/24 11:04:42;;;;;;;9.32;6.85;;;;;;;33.26;45.40;94754.94;4972986;28;20029;-85
2023/07/24 11:07:07;;;;;;;11.30;6.20;;;;;;;33.23;45.31;94760.94;4958017;28;20407;-93
2023/07/24 11:09:39;;;;;;;9.27;6.07;;;;;;;33.21;44.92;94761.25;4957173;28;20026;-93
2023/07/24 11:12:15;;;;;;;9.07;5.78;;;;;;;32.88;42.61;94747.50;4973833;28;20408;-86
2023/07/24 11:14:53;;;;;;;9.52;5.38;;;;;;;33.30;46.25;94742.44;4991037;28;20404;-91
2023/07/24 11:17:19;;;;;;;8.30;5.47;;;;;;;33.20;43.85;94732.03;4973057;28;20523;-89
2023/07/24 11:19:45;;;;;;;11.35;7.15;;;;;;;32.93;42.84;94730.44;4964287;28;20070;-89
2023/07/24 11:22:10;;;;;;;12.02;6.45;;;;;;;32.96;43.46;94729.81;4980823;28;20026;-87